Time;durP1;ratioP1;P1;durP2;ratioP2;P2;SDS_P1;SDS_P2;PMS_P1;PMS_P2;Temp;Humidity;BMP_temperature;BMP_pressure;BME280_temperature;BME280_humidity;BME280_pressure;Samples;Min_cycle;Max_cycle;Signal;HPM_P1;HPM_P2
2022/09/21 00:05:31;;;;;;;13.67;5.70;;;8.40;1.00;;;;;;5041715;28;20436;-83
2022/09/21 00:08:03;;;;;;;15.90;6.10;;;8.40;1.00;;;;;;5041193;28;20430;-83
2022/09/21 00:10:37;;;;;;;10.80;5.47;;;8.40;1.00;;;;;;5053542;28;20442;-84
2022/09/21 00:13:19;;;;;;;16.90;5.63;;;8.30;1.00;;;;;;5049852;28;20442;-83
2022/09/21 00:15:45;;;;;;;15.63;5.83;;;8.30;1.00;;;;;;5056233;28;20467;-77
2022/09/21 00:18:25;;;;;;;17.07;6.23;;;8.30;1.00;;;;;;5052829;28;20430;-77
2022/09/21 00:20:53;;;;;;;10.80;5.50;;;8.20;1.00;;;;;;5051090;28;20195;-77
2022/09/21 00:23:25;;;;;;;9.27;5.30;;;8.20;1.00;;;;;;5035381;28;20802;-77
2022/09/21 00:26:07;;;;;;;8.80;5.90;;;8.20;1.00;;;;;;5034439;28;20462;-77
2022/09/21 00:28:33;;;;;;;10.30;5.50;;;8.10;1.00;;;;;;5054140;28;20738;-77
2022/09/21 00:31:08;;;;;;;14.60;5.37;;;8.10;1.00;;;;;;5042660;28;21047;-77
2022/09/21 00:33:43;;;;;;;9.67;6.00;;;8.00;1.00;;;;;;5034267;28;20434;-77
2022/09/21 00:36:11;;;;;;;16.40;5.67;;;8.00;1.00;;;;;;5040144;28;21040;-76
2022/09/21 00:39:00;;;;;;;14.97;5.90;;;7.90;1.00;;;;;;5054205;28;20975;-77
2022/09/21 00:41:28;;;;;;;9.17;5.83;;;7.90;1.00;;;;;;5050938;28;20509;-77
2022/09/21 00:44:22;;;;;;;10.70;5.30;;;7.90;1.00;;;;;;5051813;28;20426;-77
2022/09/21 00:46:49;;;;;;;18.80;5.90;;;7.80;1.00;;;;;;5035222;28;20489;-78
2022/09/21 00:49:20;;;;;;;14.53;5.53;;;7.80;1.00;;;;;;5045159;28;20813;-77
2022/09/21 00:51:46;;;;;;;9.40;5.80;;;7.80;1.00;;;;;;5052021;28;20437;-76
2022/09/21 00:54:18;;;;;;;21.03;6.30;;;7.80;1.00;;;;;;5037686;28;20936;-77
2022/09/21 00:56:49;;;;;;;17.03;6.30;;;7.70;1.00;;;;;;5052821;28;20500;-77
2022/09/21 00:59:19;;;;;;;19.30;5.80;;;7.70;1.00;;;;;;5042280;28;20947;-76
2022/09/21 01:01:46;;;;;;;20.93;6.33;;;7.70;1.00;;;;;;5042738;28;20458;-83
2022/09/21 01:04:20;;;;;;;17.50;6.17;;;7.70;1.00;;;;;;5044558;28;20426;-83
2022/09/21 01:10:15;;;;;;;17.57;5.53;;;7.60;1.00;;;;;;5051324;28;20409;-83
2022/09/21 01:13:03;;;;;;;10.37;5.90;;;7.60;1.00;;;;;;5048591;28;21019;-83
2022/09/21 01:16:14;;;;;;;10.60;6.20;;;7.50;1.00;;;;;;5044290;28;20441;-77
2022/09/21 01:19:00;;;;;;;9.10;6.20;;;7.60;1.00;;;;;;4986453;28;20461;-77
2022/09/21 01:21:33;;;;;;;15.40;6.50;;;7.50;1.00;;;;;;4990144;28;20515;-77
2022/09/21 01:24:43;;;;;;;11.23;6.50;;;7.50;1.00;;;;;;4990631;28;20802;-77
2022/09/21 01:27:32;;;;;;;11.73;6.30;;;7.50;1.00;;;;;;4983939;28;20520;-78
2022/09/21 01:30:24;;;;;;;9.50;6.27;;;7.50;1.00;;;;;;4985726;28;20457;-82
2022/09/21 01:36:31;;;;;;;13.67;6.80;;;7.40;1.00;;;;;;4985379;28;20516;-83
2022/09/21 01:39:13;;;;;;;12.17;6.60;;;7.40;1.00;;;;;;4976488;28;20437;-83
2022/09/21 01:41:50;;;;;;;9.30;6.50;;;7.40;1.00;;;;;;4987516;28;20451;-83
2022/09/21 01:44:32;;;;;;;13.13;6.87;;;7.40;1.00;;;;;;4987981;28;20428;-83
2022/09/21 01:50:20;;;;;;;12.57;6.50;;;7.30;1.00;;;;;;5044337;28;20410;-83
2022/09/21 01:52:59;;;;;;;11.50;7.00;;;7.30;1.00;;;;;;5049436;28;20460;-83
2022/09/21 01:55:44;;;;;;;12.47;6.80;;;7.30;1.00;;;;;;5039808;28;20885;-83
2022/09/21 01:59:00;;;;;;;14.03;7.70;;;7.30;1.00;;;;;;5040293;28;20485;-83
2022/09/21 02:01:45;;;;;;;16.20;7.10;;;7.30;1.00;;;;;;5039751;28;20570;-83
2022/09/21 02:04:37;;;;;;;9.50;6.63;;;7.30;1.00;;;;;;5042096;28;20426;-83
2022/09/21 02:07:54;;;;;;;11.10;6.53;;;7.20;1.00;;;;;;5040050;28;20445;-83
2022/09/21 02:13:45;;;;;;;14.67;6.70;;;7.20;1.00;;;;;;5033317;28;20394;-83
2022/09/21 02:17:09;;;;;;;10.33;6.03;;;7.10;1.00;;;;;;5033984;28;20540;-84
2022/09/21 02:20:08;;;;;;;9.17;6.40;;;7.10;1.00;;;;;;5014543;28;20908;-83
2022/09/21 02:22:58;;;;;;;14.97;6.23;;;7.00;1.00;;;;;;5011150;28;20880;-83
2022/09/21 02:26:01;;;;;;;15.03;6.63;;;7.00;1.00;;;;;;5006326;28;20951;-83
2022/09/21 02:28:54;;;;;;;12.83;6.43;;;7.00;1.00;;;;;;5007142;28;20435;-83
2022/09/21 02:31:51;;;;;;;10.23;5.70;;;6.90;1.00;;;;;;5001905;28;20434;-83
2022/09/21 02:34:29;;;;;;;9.30;5.40;;;6.90;1.00;;;;;;5000708;28;20586;-83
2022/09/21 02:37:42;;;;;;;9.00;5.40;;;6.90;1.00;;;;;;5014804;28;20463;-83
2022/09/21 02:40:48;;;;;;;10.43;5.40;;;6.90;1.00;;;;;;5013293;28;20455;-83
2022/09/21 02:43:40;;;;;;;15.50;5.70;;;6.90;1.00;;;;;;5014813;28;20538;-83
2022/09/21 02:46:27;;;;;;;14.30;5.73;;;6.80;1.00;;;;;;5009646;28;20543;-78
2022/09/21 02:49:30;;;;;;;6.73;5.80;;;6.80;1.00;;;;;;5008964;28;20448;-77
2022/09/21 02:52:08;;;;;;;13.77;6.07;;;6.70;1.00;;;;;;5052248;28;20609;-77
2022/09/21 02:54:38;;;;;;;7.60;5.67;;;6.70;1.00;;;;;;5044736;28;20521;-77
2022/09/21 02:57:30;;;;;;;10.83;6.40;;;6.70;1.00;;;;;;5039969;28;20497;-77
2022/09/21 03:00:01;;;;;;;7.57;5.97;;;6.70;1.00;;;;;;5050084;28;20440;-77
2022/09/21 03:03:15;;;;;;;13.13;6.07;;;6.60;1.00;;;;;;5053367;28;20973;-83
2022/09/21 03:06:30;;;;;;;7.60;5.47;;;6.60;1.00;;;;;;5055829;28;20399;-83
2022/09/21 03:09:00;;;;;;;7.07;5.60;;;6.50;1.00;;;;;;5035531;28;20434;-83
2022/09/21 03:12:12;;;;;;;9.40;5.60;;;6.50;1.00;;;;;;5049541;28;20475;-83
2022/09/21 03:15:26;;;;;;;10.70;6.33;;;6.50;1.00;;;;;;5041778;28;20969;-83
2022/09/21 03:17:55;;;;;;;8.57;6.03;;;6.40;1.00;;;;;;5049460;28;20427;-83
2022/09/21 03:20:20;;;;;;;12.90;5.20;;;6.30;1.00;;;;;;5054112;28;20445;-83
2022/09/21 03:23:12;;;;;;;10.20;5.43;;;6.30;1.00;;;;;;5039662;28;20443;-83
2022/09/21 03:26:01;;;;;;;8.90;5.53;;;6.30;1.00;;;;;;5035122;28;20192;-83
2022/09/21 03:28:54;;;;;;;14.73;5.20;;;6.30;1.00;;;;;;5035169;28;20481;-83
2022/09/21 03:31:24;;;;;;;11.23;6.40;;;6.30;1.00;;;;;;5040394;28;20444;-77
2022/09/21 03:34:01;;;;;;;6.70;5.53;;;6.30;1.00;;;;;;5055621;28;20398;-77
2022/09/21 03:36:43;;;;;;;16.10;5.60;;;6.20;1.00;;;;;;5035236;28;20453;-76
2022/09/21 03:39:08;;;;;;;10.33;5.17;;;6.20;1.00;;;;;;5035681;28;20395;-77
2022/09/21 03:41:37;;;;;;;10.13;5.47;;;6.20;1.00;;;;;;5038638;28;20426;-77
2022/09/21 03:44:02;;;;;;;8.40;5.70;;;6.20;1.00;;;;;;5037477;28;20180;-77
2022/09/21 03:46:34;;;;;;;6.73;4.97;;;6.20;1.00;;;;;;5034888;28;20435;-77
2022/09/21 03:49:06;;;;;;;10.93;5.50;;;6.10;1.00;;;;;;5041772;28;20525;-76
2022/09/21 03:51:48;;;;;;;9.90;5.93;;;6.20;1.00;;;;;;5047124;28;20421;-78
2022/09/21 03:54:19;;;;;;;7.23;4.53;;;6.10;1.00;;;;;;5038460;28;20475;-77
2022/09/21 03:56:45;;;;;;;8.50;5.83;;;6.10;1.00;;;;;;5049357;28;20457;-77
2022/09/21 03:59:12;;;;;;;7.50;5.07;;;6.00;1.00;;;;;;5049393;28;20793;-77
2022/09/21 04:01:38;;;;;;;14.50;4.80;;;6.00;1.00;;;;;;5040272;28;20655;-78
2022/09/21 04:04:04;;;;;;;13.17;5.30;;;6.10;1.00;;;;;;5055260;28;20417;-77
2022/09/21 04:06:31;;;;;;;7.57;5.53;;;6.00;1.00;;;;;;5046508;28;20227;-77
2022/09/21 04:09:07;;;;;;;14.70;5.30;;;6.00;1.00;;;;;;5055126;28;20167;-77
2022/09/21 04:11:32;;;;;;;7.83;5.00;;;6.00;1.00;;;;;;5049335;28;20451;-76
2022/09/21 04:14:13;;;;;;;10.33;5.37;;;5.90;1.00;;;;;;5045228;28;20494;-77
2022/09/21 04:16:50;;;;;;;11.60;5.70;;;6.00;1.00;;;;;;5048550;28;20215;-83
2022/09/21 04:19:16;;;;;;;6.90;5.70;;;6.00;1.00;;;;;;5051672;28;20441;-84
2022/09/21 04:21:42;;;;;;;13.23;5.67;;;5.90;1.00;;;;;;5041661;28;20450;-84
2022/09/21 04:24:30;;;;;;;10.27;5.27;;;5.90;1.00;;;;;;5044670;28;20515;-83
2022/09/21 04:27:08;;;;;;;7.57;5.23;;;5.90;1.00;;;;;;5042805;28;20258;-84
2022/09/21 04:30:07;;;;;;;12.97;5.83;;;5.90;1.00;;;;;;5036026;28;20962;-84
2022/09/21 04:32:54;;;;;;;7.20;5.00;;;5.90;1.00;;;;;;5052669;28;20442;-82
2022/09/21 04:35:37;;;;;;;12.90;5.70;;;5.90;1.00;;;;;;5049871;28;20446;-80
2022/09/21 04:38:03;;;;;;;10.10;5.13;;;5.80;1.00;;;;;;5037861;28;20437;-81
2022/09/21 04:40:37;;;;;;;8.33;4.90;;;5.90;1.00;;;;;;5044777;28;20439;-81
2022/09/21 04:43:19;;;;;;;8.67;5.37;;;5.90;1.00;;;;;;5044680;28;20737;-81
2022/09/21 04:45:48;;;;;;;6.23;5.03;;;5.80;1.00;;;;;;5033996;28;20473;-81
2022/09/21 04:48:31;;;;;;;7.70;5.37;;;5.80;1.00;;;;;;5041675;28;20441;-81
2022/09/21 04:51:42;;;;;;;14.77;5.20;;;5.80;1.00;;;;;;5040775;28;20529;-81
2022/09/21 04:54:13;;;;;;;8.00;5.50;;;5.80;1.00;;;;;;5047128;28;20430;-83
2022/09/21 04:57:06;;;;;;;10.63;5.73;;;5.80;1.00;;;;;;5050399;28;20453;-81
2022/09/21 04:59:49;;;;;;;9.90;5.97;;;5.80;1.00;;;;;;5040430;28;20438;-81
2022/09/21 05:02:19;;;;;;;9.53;6.37;;;5.80;1.00;;;;;;5052446;28;20430;-82
2022/09/21 05:05:18;;;;;;;9.50;5.33;;;5.80;1.00;;;;;;5033843;28;20439;-81
2022/09/21 05:07:44;;;;;;;11.00;6.47;;;5.80;1.00;;;;;;5032599;28;20477;-80
2022/09/21 05:10:10;;;;;;;22.53;5.17;;;5.80;1.00;;;;;;5040599;28;20437;-82
2022/09/21 05:12:43;;;;;;;12.73;5.37;;;5.80;1.00;;;;;;5043107;28;20203;-81
2022/09/21 05:15:20;;;;;;;6.20;5.50;;;5.80;1.00;;;;;;5052099;28;20627;-81
2022/09/21 05:17:45;;;;;;;6.40;5.03;;;5.80;1.00;;;;;;5045960;28;20932;-84
2022/09/21 05:20:42;;;;;;;15.80;5.90;;;5.80;1.00;;;;;;5038425;28;20422;-85
2022/09/21 05:26:29;;;;;;;11.20;5.93;;;5.80;1.00;;;;;;5048172;28;20429;-83
2022/09/21 05:28:55;;;;;;;6.77;4.70;;;5.80;1.00;;;;;;5051601;28;20802;-84
2022/09/21 05:38:19;;;;;;;9.37;5.00;;;5.90;1.00;;;;;;5050570;28;20759;-83
2022/09/21 05:40:46;;;;;;;11.57;5.50;;;5.90;1.00;;;;;;5037665;28;20426;-80
2022/09/21 05:43:13;;;;;;;16.43;5.30;;;6.00;1.00;;;;;;5047867;28;20414;-81
2022/09/21 05:45:44;;;;;;;15.03;5.00;;;6.00;1.00;;;;;;5049157;28;20430;-80
2022/09/21 05:48:36;;;;;;;8.70;5.17;;;6.00;1.00;;;;;;5033752;28;20792;-83
2022/09/21 05:51:20;;;;;;;11.13;4.80;;;6.00;1.00;;;;;;5041751;28;20508;-82
2022/09/21 05:54:29;;;;;;;11.20;4.27;;;6.00;1.00;;;;;;5056384;28;20920;-83
2022/09/21 06:00:26;;;;;;;9.97;5.00;;;6.10;1.00;;;;;;5012455;28;20431;-83
2022/09/21 06:03:28;;;;;;;8.27;5.10;;;6.10;1.00;;;;;;5001378;28;20440;-81
2022/09/21 06:05:54;;;;;;;11.20;5.40;;;6.10;1.00;;;;;;4935647;29;20439;-81
2022/09/21 06:08:30;;;;;;;8.87;5.37;;;6.10;1.00;;;;;;4919386;29;20450;-81
2022/09/21 06:11:30;;;;;;;10.40;5.13;;;6.20;1.00;;;;;;4937708;29;20486;-81
2022/09/21 06:14:24;;;;;;;10.67;5.60;;;6.30;1.00;;;;;;4925538;29;20510;-81
2022/09/21 06:16:54;;;;;;;12.10;5.87;;;6.40;1.00;;;;;;4943407;29;20867;-81
2022/09/21 06:19:54;;;;;;;11.73;5.60;;;6.50;1.00;;;;;;4936593;29;20458;-81
2022/09/21 06:22:48;;;;;;;9.20;4.70;;;6.60;1.00;;;;;;4918355;29;20479;-80
2022/09/21 06:25:14;;;;;;;8.37;5.00;;;6.70;1.00;;;;;;4934313;29;20471;-81
2022/09/21 06:27:42;;;;;;;11.90;5.27;;;6.80;1.00;;;;;;4948153;29;20428;-81
2022/09/21 06:30:43;;;;;;;13.50;6.00;;;6.90;1.00;;;;;;4939454;29;20270;-81
2022/09/21 06:33:22;;;;;;;10.63;5.87;;;7.00;1.00;;;;;;4948813;28;20467;-80
2022/09/21 06:36:01;;;;;;;11.70;5.90;;;7.10;1.00;;;;;;4994937;28;20452;-81
2022/09/21 06:38:48;;;;;;;12.20;5.53;;;7.30;1.00;;;;;;4988617;28;20443;-81
2022/09/21 06:41:19;;;;;;;11.80;6.27;;;7.40;1.00;;;;;;5045746;28;20428;-80
2022/09/21 06:44:01;;;;;;;8.90;5.90;;;7.50;1.00;;;;;;5035974;28;20807;-81
2022/09/21 06:46:31;;;;;;;8.97;5.27;;;7.60;1.20;;;;;;5056039;28;20438;-81
2022/09/21 06:49:01;;;;;;;7.43;5.70;;;7.80;1.40;;;;;;5055427;28;20946;-84
2022/09/21 06:51:31;;;;;;;13.43;4.90;;;7.90;1.00;;;;;;5054999;28;20932;-83
2022/09/21 06:54:07;;;;;;;11.30;5.60;;;8.00;2.50;;;;;;5050102;28;20480;-84
2022/09/21 06:56:49;;;;;;;10.17;5.97;;;8.20;2.30;;;;;;5054817;28;20514;-84
2022/09/21 07:02:49;;;;;;;10.67;6.87;;;8.40;4.60;;;;;;5045463;28;20377;-84
2022/09/21 07:05:32;;;;;;;15.23;8.20;;;8.60;5.40;;;;;;5047031;28;20429;-84
2022/09/21 07:14:44;;;;;;;25.30;9.50;;;9.00;5.80;;;;;;5037718;28;20897;-84
2022/09/21 07:20:32;;;;;;;14.20;7.40;;;9.30;1.00;;;;;;5035907;28;20374;-85
2022/09/21 07:22:57;;;;;;;20.47;8.20;;;9.50;1.00;;;;;;5050308;28;20421;-85
2022/09/21 07:29:01;;;;;;;16.20;7.23;;;9.80;1.00;;;;;;5046108;28;20191;-85
2022/09/21 07:34:48;;;;;;;13.17;6.40;;;10.10;1.00;;;;;;5053764;28;20465;-84
2022/09/21 07:37:48;;;;;;;12.50;7.07;;;10.20;1.00;;;;;;5040671;28;20537;-85
2022/09/21 07:40:36;;;;;;;12.60;6.63;;;10.30;1.00;;;;;;5049839;28;20188;-85
2022/09/21 07:43:07;;;;;;;10.93;6.33;;;10.40;1.00;;;;;;5042972;28;20465;-84
2022/09/21 07:45:51;;;;;;;14.80;6.20;;;10.50;1.00;;;;;;5052975;28;20412;-84
2022/09/21 07:48:42;;;;;;;12.10;5.93;;;10.70;1.00;;;;;;5047141;28;20525;-85
2022/09/21 07:51:19;;;;;;;6.70;5.20;;;10.80;1.00;;;;;;5041648;28;20424;-84
2022/09/21 07:54:01;;;;;;;7.80;4.40;;;10.80;1.00;;;;;;5050289;28;20872;-84
2022/09/21 07:56:37;;;;;;;16.43;5.30;;;11.00;1.00;;;;;;5036000;28;20465;-85
2022/09/21 07:59:48;;;;;;;24.73;5.77;;;11.10;1.00;;;;;;5044955;28;20433;-84
2022/09/21 08:02:48;;;;;;;11.20;5.00;;;11.20;1.00;;;;;;5045858;28;20405;-84
2022/09/21 08:12:24;;;;;;;7.53;4.53;;;11.60;1.00;;;;;;5037616;28;20434;-83
2022/09/21 08:15:42;;;;;;;18.33;4.83;;;11.70;1.00;;;;;;5034534;28;20482;-83
2022/09/21 08:18:25;;;;;;;8.83;4.37;;;11.70;1.00;;;;;;5038456;28;20385;-85
2022/09/21 08:24:31;;;;;;;8.17;4.57;;;12.00;1.00;;;;;;5034688;28;20452;-81
2022/09/21 08:27:01;;;;;;;9.37;4.00;;;12.10;1.00;;;;;;5039383;28;20506;-79
2022/09/21 08:30:01;;;;;;;5.47;3.97;;;12.20;1.00;;;;;;5048008;28;20422;-78
2022/09/21 08:32:43;;;;;;;4.30;3.30;;;12.30;1.00;;;;;;5046722;28;20433;-77
2022/09/21 08:35:13;;;;;;;9.40;3.77;;;12.40;1.00;;;;;;5041954;28;20434;-77
2022/09/21 08:37:43;;;;;;;8.00;3.93;;;12.40;1.00;;;;;;5049271;28;20486;-77
2022/09/21 08:40:09;;;;;;;5.47;3.17;;;12.60;1.00;;;;;;5044297;28;20956;-77
2022/09/21 08:42:51;;;;;;;6.27;3.40;;;12.70;1.00;;;;;;5053898;28;20395;-78
2022/09/21 08:45:42;;;;;;;5.10;2.97;;;12.80;1.00;;;;;;5042837;28;20430;-78
2022/09/21 08:48:22;;;;;;;5.53;3.47;;;12.90;1.00;;;;;;5038193;28;20422;-77
2022/09/21 08:50:54;;;;;;;7.13;3.50;;;13.00;1.00;;;;;;5049089;28;20435;-77
2022/09/21 08:53:41;;;;;;;5.13;3.17;;;13.20;1.00;;;;;;5034317;28;20399;-77
2022/09/21 08:56:11;;;;;;;4.27;3.10;;;13.20;1.00;;;;;;5040295;28;20531;-76
2022/09/21 08:58:41;;;;;;;6.20;3.23;;;13.30;1.00;;;;;;5036780;28;20496;-77
2022/09/21 09:01:19;;;;;;;10.97;2.43;;;13.40;1.00;;;;;;5033865;28;20376;-77
2022/09/21 09:04:10;;;;;;;4.07;2.87;;;13.50;1.00;;;;;;5047300;28;20419;-77
2022/09/21 09:06:55;;;;;;;5.03;2.20;;;13.50;1.00;;;;;;5046745;28;20425;-78
2022/09/21 09:10:01;;;;;;;2.80;2.60;;;13.60;1.00;;;;;;5051402;28;20412;-79
2022/09/21 09:12:49;;;;;;;4.73;2.87;;;13.70;1.00;;;;;;5044289;28;20404;-78
2022/09/21 09:15:24;;;;;;;6.80;2.83;;;13.70;1.00;;;;;;5038133;28;20486;-78
2022/09/21 09:18:03;;;;;;;9.13;2.80;;;13.90;1.00;;;;;;5039243;28;20462;-76
2022/09/21 09:21:11;;;;;;;5.43;2.80;;;13.90;1.00;;;;;;5037264;28;20408;-81
2022/09/21 09:23:51;;;;;;;3.63;2.40;;;14.00;1.00;;;;;;5042335;28;20433;-82
2022/09/21 09:26:28;;;;;;;3.77;2.13;;;14.20;1.00;;;;;;5044847;28;20442;-77
2022/09/21 09:29:19;;;;;;;4.30;2.20;;;14.20;1.00;;;;;;5036885;28;20429;-78
2022/09/21 09:31:45;;;;;;;1.50;1.40;;;14.30;1.00;;;;;;5044240;28;20495;-78
2022/09/21 09:34:32;;;;;;;2.47;1.10;;;14.50;1.00;;;;;;5047637;28;20418;-77
2022/09/21 09:37:16;;;;;;;3.07;1.67;;;14.50;1.00;;;;;;5049529;28;20489;-80
2022/09/21 09:40:37;;;;;;;3.30;1.90;;;14.60;1.00;;;;;;5049280;28;20717;-81
2022/09/21 09:43:19;;;;;;;1.40;1.30;;;14.70;1.00;;;;;;5038258;28;20403;-81
2022/09/21 09:46:20;;;;;;;1.33;1.10;;;14.80;1.00;;;;;;5051999;28;20475;-80
2022/09/21 09:49:00;;;;;;;2.00;1.20;;;14.90;1.00;;;;;;5045651;28;20413;-81
2022/09/21 09:51:39;;;;;;;2.20;1.17;;;15.00;1.00;;;;;;5055270;28;20536;-78
2022/09/21 09:54:13;;;;;;;2.50;1.00;;;15.00;1.00;;;;;;5071638;28;20420;-77
2022/09/21 09:57:03;;;;;;;3.00;1.27;;;15.10;1.00;;;;;;5049117;28;20436;-78
2022/09/21 09:59:49;;;;;;;2.63;1.70;;;15.20;1.00;;;;;;5056851;28;20452;-77
2022/09/21 10:02:26;;;;;;;1.60;1.23;;;15.30;1.00;;;;;;5045084;28;20408;-77
2022/09/21 10:05:17;;;;;;;1.23;1.07;;;15.40;1.00;;;;;;5056405;28;20433;-77
2022/09/21 10:07:44;;;;;;;2.83;1.20;;;15.50;1.00;;;;;;5044369;28;20413;-80
2022/09/21 10:10:32;;;;;;;2.57;1.13;;;15.50;1.00;;;;;;5044690;28;20920;-80
2022/09/21 10:13:28;;;;;;;2.77;1.43;;;15.60;1.00;;;;;;5049743;28;20409;-80
2022/09/21 10:16:09;;;;;;;1.70;1.20;;;15.80;1.00;;;;;;5051125;28;20549;-79
2022/09/21 10:18:45;;;;;;;1.90;1.17;;;15.90;1.00;;;;;;5047615;28;20439;-79
2022/09/21 10:21:49;;;;;;;11.00;3.00;;;15.90;1.00;;;;;;5040232;28;20521;-79
2022/09/21 10:24:22;;;;;;;2.90;1.37;;;16.00;1.00;;;;;;5049411;28;20444;-79
2022/09/21 10:27:09;;;;;;;2.63;1.23;;;16.00;1.00;;;;;;5042564;28;20607;-80
2022/09/21 10:29:45;;;;;;;1.30;1.20;;;16.10;1.00;;;;;;5054835;28;20418;-79
2022/09/21 10:32:24;;;;;;;1.77;1.13;;;16.20;1.00;;;;;;5049997;28;20403;-80
2022/09/21 10:35:31;;;;;;;5.30;1.30;;;16.20;1.00;;;;;;5046177;28;20400;-80
2022/09/21 10:38:19;;;;;;;5.67;1.50;;;16.40;1.00;;;;;;5055966;28;20490;-77
2022/09/21 10:41:01;;;;;;;4.20;1.17;;;16.40;1.00;;;;;;5043928;28;20783;-77
2022/09/21 10:43:49;;;;;;;1.83;1.20;;;16.50;1.00;;;;;;5037139;28;20510;-76
2022/09/21 10:46:16;;;;;;;3.90;1.00;;;16.50;1.00;;;;;;5056643;28;20439;-77
2022/09/21 10:48:45;;;;;;;6.43;1.63;;;16.70;1.00;;;;;;5054190;28;20460;-76
2022/09/21 10:51:34;;;;;;;3.50;1.20;;;16.80;1.00;;;;;;5052589;28;20413;-75
2022/09/21 10:54:08;;;;;;;1.47;0.83;;;16.90;1.00;;;;;;5049433;28;20452;-76
2022/09/21 10:56:34;;;;;;;1.83;0.90;;;17.00;1.00;;;;;;5045143;28;20455;-75
2022/09/21 10:59:18;;;;;;;1.40;1.10;;;17.00;1.00;;;;;;5042033;28;20415;-76
2022/09/21 11:01:46;;;;;;;3.43;1.13;;;17.10;1.00;;;;;;5044997;28;20245;-75
2022/09/21 11:04:39;;;;;;;4.13;0.90;;;17.20;1.00;;;;;;5046339;28;20403;-75
2022/09/21 11:07:13;;;;;;;1.53;0.83;;;17.30;1.00;;;;;;5052724;28;20422;-74
2022/09/21 11:10:07;;;;;;;5.07;1.10;;;17.40;1.00;;;;;;5047328;28;20476;-75
2022/09/21 11:12:59;;;;;;;2.90;1.20;;;17.50;1.00;;;;;;5055414;28;20481;-74
2022/09/21 11:15:44;;;;;;;3.10;1.20;;;17.50;1.00;;;;;;5047611;28;20438;-75
2022/09/21 11:18:20;;;;;;;4.23;1.33;;;17.60;1.00;;;;;;5040103;28;20440;-76
2022/09/21 11:21:42;;;;;;;4.70;1.00;;;17.60;1.00;;;;;;5044335;28;20445;-80
2022/09/21 11:24:31;;;;;;;8.80;1.53;;;17.60;1.00;;;;;;4993468;28;20524;-79
2022/09/21 11:27:06;;;;;;;1.33;0.83;;;17.70;1.00;;;;;;4983066;28;20426;-81
2022/09/21 11:33:49;;;;;;;2.20;1.00;;;17.80;1.00;;;;;;4984707;28;20501;-80
2022/09/21 11:36:28;;;;;;;1.47;0.70;;;17.80;1.00;;;;;;4975423;28;20494;-79
2022/09/21 11:39:19;;;;;;;4.30;0.97;;;17.80;1.00;;;;;;4974334;28;21079;-80
2022/09/21 11:42:19;;;;;;;2.30;1.10;;;17.90;1.00;;;;;;4982532;28;20570;-82
2022/09/21 11:44:59;;;;;;;5.23;0.80;;;17.90;1.00;;;;;;4982568;28;20514;-81
2022/09/21 11:48:23;;;;;;;5.17;1.00;;;18.00;1.00;;;;;;4978886;28;20509;-80
2022/09/21 11:51:07;;;;;;;1.63;0.97;;;18.00;1.00;;;;;;4940555;29;20919;-80
2022/09/21 11:53:45;;;;;;;0.83;0.70;;;18.10;1.00;;;;;;4943942;29;20472;-74
2022/09/21 11:56:22;;;;;;;11.03;1.13;;;18.10;1.00;;;;;;4954155;29;20475;-74
2022/09/21 11:59:38;;;;;;;5.00;1.00;;;18.20;1.00;;;;;;4968969;28;20422;-75
2022/09/21 12:02:23;;;;;;;2.60;0.80;;;18.20;1.00;;;;;;4937126;29;20422;-74
2022/09/21 12:04:59;;;;;;;1.00;0.80;;;18.30;1.00;;;;;;4935534;29;20453;-75
2022/09/21 12:07:37;;;;;;;1.00;0.90;;;18.40;1.00;;;;;;4943634;29;20469;-80
2022/09/21 12:10:40;;;;;;;2.73;0.90;;;18.50;1.00;;;;;;4935182;29;20428;-80
2022/09/21 12:13:31;;;;;;;1.60;0.60;;;18.60;1.00;;;;;;4935046;29;20438;-81
2022/09/21 12:16:40;;;;;;;3.40;0.80;;;18.70;1.00;;;;;;4929914;29;20481;-81
2022/09/21 12:19:18;;;;;;;2.30;0.60;;;18.80;1.00;;;;;;4918001;29;20430;-80
2022/09/21 12:22:33;;;;;;;4.43;0.77;;;19.00;1.00;;;;;;4935228;29;20476;-80
2022/09/21 12:25:16;;;;;;;0.80;0.60;;;19.00;1.00;;;;;;4868852;29;20948;-80
2022/09/21 12:28:07;;;;;;;1.40;0.90;;;19.20;1.00;;;;;;4950039;29;20921;-80
2022/09/21 12:30:41;;;;;;;2.60;0.70;;;19.20;1.00;;;;;;4951229;29;20546;-80
2022/09/21 12:33:13;;;;;;;2.50;0.80;;;19.00;1.00;;;;;;4941366;29;20438;-81
2022/09/21 12:35:52;;;;;;;1.63;0.70;;;18.90;1.00;;;;;;4969153;28;20447;-80
2022/09/21 12:38:34;;;;;;;0.80;0.60;;;19.00;1.00;;;;;;4991349;28;20510;-74
2022/09/21 12:41:17;;;;;;;1.47;0.70;;;19.20;1.00;;;;;;4989639;28;20452;-74
2022/09/21 12:44:25;;;;;;;0.90;0.70;;;19.40;1.00;;;;;;4992020;28;20574;-74
2022/09/21 12:47:12;;;;;;;8.83;0.70;;;19.50;1.00;;;;;;4931858;29;20436;-74
2022/09/21 12:49:43;;;;;;;2.43;0.70;;;19.70;1.00;;;;;;4934361;29;20434;-74
2022/09/21 12:52:15;;;;;;;1.53;0.60;;;19.70;1.00;;;;;;4925904;29;20935;-74
2022/09/21 12:54:57;;;;;;;0.70;0.70;;;19.70;1.00;;;;;;4934449;29;20471;-74
2022/09/21 12:57:32;;;;;;;0.80;0.73;;;19.80;1.00;;;;;;4932023;29;20490;-74
2022/09/21 13:00:10;;;;;;;1.50;0.80;;;20.00;1.00;;;;;;4932650;29;20502;-74
2022/09/21 13:03:16;;;;;;;1.57;0.90;;;20.00;1.00;;;;;;4984652;28;20442;-74
2022/09/21 13:06:21;;;;;;;0.67;0.57;;;19.90;1.00;;;;;;4927488;29;20439;-74
2022/09/21 13:08:50;;;;;;;0.73;0.60;;;19.70;1.00;;;;;;4840858;29;20466;-74
2022/09/21 13:11:20;;;;;;;0.70;0.70;;;19.70;1.00;;;;;;4835602;29;20975;-74
2022/09/21 13:14:00;;;;;;;1.80;0.93;;;19.80;1.00;;;;;;4840817;29;20432;-74
2022/09/21 13:16:28;;;;;;;0.80;0.60;;;19.80;1.00;;;;;;4835345;29;20484;-74
2022/09/21 13:18:58;;;;;;;1.77;0.70;;;19.70;1.00;;;;;;4877629;29;20599;-74
2022/09/21 13:21:31;;;;;;;1.50;0.80;;;19.70;1.00;;;;;;4875860;29;20882;-74
2022/09/21 13:24:32;;;;;;;1.20;0.70;;;19.90;1.00;;;;;;4878613;29;20434;-80
2022/09/21 13:27:06;;;;;;;1.10;0.80;;;19.90;1.00;;;;;;4875428;29;20471;-80
2022/09/21 13:29:37;;;;;;;0.90;0.70;;;19.90;1.00;;;;;;4878957;29;20465;-80
2022/09/21 13:32:12;;;;;;;1.47;0.90;;;20.10;1.00;;;;;;4878018;29;20442;-80
2022/09/21 13:34:43;;;;;;;1.07;0.60;;;20.20;1.00;;;;;;4876393;29;20453;-80
2022/09/21 13:37:26;;;;;;;0.60;0.50;;;20.40;1.00;;;;;;4877800;29;20692;-79
2022/09/21 13:40:37;;;;;;;1.63;0.70;;;20.50;1.00;;;;;;4875391;29;20449;-80
2022/09/21 13:43:17;;;;;;;0.63;0.63;;;20.60;1.00;;;;;;4955611;28;20512;-80
2022/09/21 13:45:50;;;;;;;0.70;0.60;;;20.70;1.00;;;;;;5010489;28;20470;-80
2022/09/21 13:48:28;;;;;;;1.57;0.70;;;20.90;1.00;;;;;;5034392;28;20411;-80
2022/09/21 13:51:00;;;;;;;1.43;0.80;;;21.10;1.00;;;;;;5043421;28;20528;-80
2022/09/21 13:54:02;;;;;;;0.77;0.73;;;21.20;1.00;;;;;;5045226;28;20493;-79
2022/09/21 13:56:57;;;;;;;1.57;0.60;;;21.30;1.00;;;;;;5041887;28;20659;-80
2022/09/21 13:59:25;;;;;;;2.20;0.60;;;21.30;1.00;;;;;;5041778;28;20434;-80
2022/09/21 14:02:31;;;;;;;1.83;0.70;;;21.50;1.00;;;;;;5038022;28;20786;-80
2022/09/21 14:05:19;;;;;;;0.70;0.70;;;21.70;1.00;;;;;;5046130;28;20405;-80
2022/09/21 14:08:15;;;;;;;0.80;0.80;;;21.80;1.00;;;;;;5039921;28;20495;-80
2022/09/21 14:11:19;;;;;;;1.73;0.80;;;22.00;1.00;;;;;;5039870;28;20424;-80
2022/09/21 14:13:59;;;;;;;2.00;0.60;;;22.10;1.00;;;;;;5041863;28;20444;-79
2022/09/21 14:16:44;;;;;;;0.80;0.60;;;22.00;1.00;;;;;;5051843;28;20459;-80
2022/09/21 14:19:19;;;;;;;0.80;0.67;;;21.90;1.00;;;;;;5044811;28;20443;-79
2022/09/21 14:22:03;;;;;;;2.17;0.63;;;21.70;1.00;;;;;;5053681;28;20873;-79
2022/09/21 14:24:37;;;;;;;1.00;0.70;;;21.50;1.00;;;;;;5051185;28;20435;-74
2022/09/21 14:27:30;;;;;;;3.13;0.73;;;21.40;1.00;;;;;;5043898;28;20456;-74
2022/09/21 14:30:22;;;;;;;1.33;0.73;;;21.10;1.00;;;;;;5042459;28;20540;-74
2022/09/21 14:32:58;;;;;;;0.90;0.60;;;20.80;1.00;;;;;;5044393;28;20852;-74
2022/09/21 14:35:29;;;;;;;1.33;0.60;;;20.60;1.00;;;;;;5049694;28;20984;-74
2022/09/21 14:37:58;;;;;;;1.13;0.70;;;20.40;1.00;;;;;;5047118;28;20575;-74
2022/09/21 14:40:30;;;;;;;0.60;0.60;;;20.00;1.00;;;;;;5051103;28;20410;-74
2022/09/21 14:42:59;;;;;;;1.30;1.00;;;19.80;1.00;;;;;;5048049;28;20944;-74
2022/09/21 14:45:56;;;;;;;1.10;0.73;;;19.60;1.00;;;;;;5040020;28;20472;-74
2022/09/21 14:48:54;;;;;;;0.60;0.60;;;19.40;1.00;;;;;;5037183;28;20427;-74
2022/09/21 14:52:01;;;;;;;1.83;0.90;;;19.10;1.00;;;;;;5049430;28;20825;-74
2022/09/21 14:55:04;;;;;;;0.60;0.60;;;18.90;1.00;;;;;;5038680;28;20441;-79
2022/09/21 14:58:13;;;;;;;1.57;0.70;;;18.70;1.00;;;;;;5043373;28;20461;-79
2022/09/21 15:00:44;;;;;;;0.90;0.70;;;18.60;1.00;;;;;;5051766;28;20461;-79
2022/09/21 15:03:41;;;;;;;4.10;0.70;;;18.60;1.00;;;;;;5042924;28;20460;-79
2022/09/21 15:12:45;;;;;;;1.03;0.80;;;19.50;1.00;;;;;;5044759;28;20437;-74
2022/09/21 15:15:45;;;;;;;1.93;0.60;;;20.70;1.00;;;;;;5054830;28;20952;-74
2022/09/21 15:18:20;;;;;;;0.70;0.70;;;22.10;1.00;;;;;;5043999;28;20460;-74
2022/09/21 15:21:00;;;;;;;2.63;0.80;;;23.30;1.00;;;;;;5055540;28;20418;-74
2022/09/21 15:23:44;;;;;;;0.73;0.60;;;24.60;1.00;;;;;;5044263;28;20440;-79
2022/09/21 15:26:18;;;;;;;0.70;0.60;;;25.80;1.00;;;;;;5049190;28;20440;-79
2022/09/21 15:29:16;;;;;;;5.43;0.80;;;26.70;1.00;;;;;;5043632;28;20436;-79
2022/09/21 15:31:44;;;;;;;0.60;0.60;;;27.50;1.00;;;;;;5044284;28;20459;-80